Time;durP1;ratioP1;P1;durP2;ratioP2;P2;SDS_P1;SDS_P2;PMS_P1;PMS_P2;Temp;Humidity;BMP_temperature;BMP_pressure;BME280_temperature;BME280_humidity;BME280_pressure;Samples;Min_cycle;Max_cycle;Signal;HPM_P1;HPM_P2
2023/04/05 00:00:43;;;;;;;3.90;2.83;;;5.60;86.20;;;;;;5042550;28;20032;-44
2023/04/05 00:03:09;;;;;;;3.97;3.40;;;5.60;86.30;;;;;;5042612;28;20029;-43
2023/04/05 00:05:35;;;;;;;3.78;2.95;;;5.50;86.20;;;;;;5043274;28;20577;-43
2023/04/05 00:08:02;;;;;;;3.50;3.15;;;5.50;86.30;;;;;;5043173;28;20032;-43
2023/04/05 00:10:31;;;;;;;4.07;2.95;;;5.50;86.40;;;;;;5042867;28;20032;-42
2023/04/05 00:12:57;;;;;;;3.95;2.90;;;5.50;86.40;;;;;;5042651;28;20045;-43
2023/04/05 00:15:24;;;;;;;5.60;3.30;;;5.40;86.40;;;;;;5041903;28;20025;-43
2023/04/05 00:17:50;;;;;;;3.20;2.78;;;5.40;86.40;;;;;;5042908;28;20044;-43
2023/04/05 00:20:15;;;;;;;4.20;2.92;;;5.40;86.50;;;;;;5042525;28;20183;-43
2023/04/05 00:22:45;;;;;;;4.38;2.90;;;5.30;86.50;;;;;;5042265;28;20082;-43
2023/04/05 00:25:11;;;;;;;3.03;2.70;;;5.30;86.60;;;;;;5042208;28;20078;-42
2023/04/05 00:27:38;;;;;;;5.50;3.40;;;5.30;86.60;;;;;;5042454;28;20029;-42
2023/04/05 00:30:04;;;;;;;4.10;2.92;;;5.30;86.70;;;;;;5042000;28;20028;-43
2023/04/05 00:32:30;;;;;;;4.07;3.33;;;5.30;86.70;;;;;;5043043;28;20036;-42
2023/04/05 00:34:55;;;;;;;4.60;2.65;;;5.30;86.70;;;;;;5042684;28;20380;-43
2023/04/05 00:37:21;;;;;;;4.10;2.90;;;5.20;86.70;;;;;;5041616;28;20855;-43
2023/04/05 00:39:46;;;;;;;3.47;2.88;;;5.20;86.80;;;;;;5042064;28;20025;-43
2023/04/05 00:42:12;;;;;;;4.55;3.20;;;5.20;86.90;;;;;;5039964;28;20571;-42
2023/04/05 00:44:37;;;;;;;3.90;2.97;;;5.20;86.90;;;;;;5042498;28;20029;-42
2023/04/05 00:47:06;;;;;;;3.72;3.10;;;5.10;86.90;;;;;;5041805;28;20064;-40
2023/04/05 00:49:33;;;;;;;8.18;3.40;;;5.10;87.00;;;;;;5041907;28;20119;-43
2023/04/05 00:51:59;;;;;;;3.55;2.80;;;5.00;87.00;;;;;;5041693;28;20040;-43
2023/04/05 00:54:28;;;;;;;4.65;3.17;;;5.00;87.10;;;;;;5021614;28;20071;-44
2023/04/05 00:57:05;;;;;;;5.85;3.10;;;5.00;87.20;;;;;;5035841;28;20021;-43
2023/04/05 00:59:31;;;;;;;4.22;3.20;;;5.00;87.40;;;;;;5042251;28;20111;-42
2023/04/05 01:02:07;;;;;;;4.68;3.35;;;4.90;87.40;;;;;;5042199;28;20021;-43
2023/04/05 01:04:35;;;;;;;4.28;3.20;;;4.90;87.60;;;;;;5042090;28;20029;-42
2023/04/05 01:07:11;;;;;;;4.78;3.33;;;4.90;87.60;;;;;;5041479;28;20021;-43
2023/04/05 01:09:50;;;;;;;4.30;3.40;;;4.90;87.80;;;;;;5041968;28;20025;-43
2023/04/05 01:12:18;;;;;;;5.72;3.85;;;4.80;87.70;;;;;;5040814;28;20622;-44
2023/04/05 01:14:49;;;;;;;5.35;3.65;;;4.80;87.80;;;;;;5042330;28;20381;-43
2023/04/05 01:17:20;;;;;;;5.25;3.85;;;4.80;87.80;;;;;;5040467;28;20036;-43
2023/04/05 01:19:52;;;;;;;4.20;3.53;;;4.80;87.90;;;;;;5041751;28;20021;-43
2023/04/05 01:22:25;;;;;;;5.32;3.58;;;4.80;88.00;;;;;;5041350;28;20107;-42
2023/04/05 01:24:56;;;;;;;;;;;4.70;88.00;;;;;;5041649;28;20036;-42
2023/04/05 01:27:33;;;;;;;4.57;3.28;;;4.70;88.10;;;;;;5040895;28;20620;-43
2023/04/05 01:30:19;;;;;;;4.78;3.22;;;4.60;88.10;;;;;;5041637;28;20028;-43
2023/04/05 01:33:12;;;;;;;6.65;3.28;;;4.60;88.50;;;;;;5041138;28;20033;-42
2023/04/05 01:35:57;;;;;;;4.15;3.50;;;4.50;88.80;;;;;;5041635;28;20028;-42
2023/04/05 01:38:26;;;;;;;5.32;3.72;;;4.50;89.10;;;;;;5040348;28;20021;-43
2023/04/05 01:40:53;;;;;;;4.85;3.58;;;4.40;89.40;;;;;;5041521;28;20048;-43
2023/04/05 01:43:18;;;;;;;4.95;3.40;;;4.40;89.90;;;;;;5040233;28;20029;-42
2023/04/05 01:45:45;;;;;;;4.82;3.88;;;4.30;90.10;;;;;;5040244;28;20025;-43
2023/04/05 01:48:12;;;;;;;4.55;3.65;;;4.30;90.20;;;;;;5040229;28;20041;-43
2023/04/05 01:50:37;;;;;;;5.80;4.72;;;4.30;90.40;;;;;;5041171;28;20021;-43
2023/04/05 01:53:03;;;;;;;4.97;3.72;;;4.20;90.50;;;;;;5039793;28;20510;-42
2023/04/05 01:55:29;;;;;;;5.55;4.00;;;4.20;90.70;;;;;;5041640;28;20032;-43
2023/04/05 01:57:56;;;;;;;5.45;3.60;;;4.20;90.80;;;;;;5041521;28;20032;-43
2023/04/05 02:00:22;;;;;;;4.43;3.75;;;4.20;91.00;;;;;;5039786;28;20103;-43
2023/04/05 02:02:48;;;;;;;4.65;4.15;;;4.20;91.10;;;;;;5041150;28;20036;-44
2023/04/05 02:05:13;;;;;;;5.53;3.95;;;4.10;91.30;;;;;;5040467;28;20032;-43
2023/04/05 02:07:39;;;;;;;4.60;3.50;;;4.10;91.40;;;;;;5039940;28;20036;-43
2023/04/05 02:10:05;;;;;;;4.90;3.47;;;4.10;91.40;;;;;;5040203;28;20025;-43
2023/04/05 02:12:31;;;;;;;6.22;4.00;;;4.00;91.50;;;;;;5040725;28;20153;-43
2023/04/05 02:14:57;;;;;;;5.53;3.90;;;4.00;91.50;;;;;;5040082;28;20488;-42
2023/04/05 02:17:23;;;;;;;6.00;3.95;;;4.00;91.60;;;;;;5040668;28;20020;-42
2023/04/05 02:19:51;;;;;;;5.88;4.75;;;4.00;91.60;;;;;;5040433;28;20362;-42
2023/04/05 02:22:17;;;;;;;6.03;3.85;;;3.90;91.70;;;;;;5039613;28;20084;-43
2023/04/05 02:24:43;;;;;;;5.82;4.05;;;3.90;91.70;;;;;;5040546;28;20487;-42
2023/04/05 02:27:09;;;;;;;5.20;4.10;;;4.00;91.70;;;;;;5039301;28;20028;-42
2023/04/05 02:29:35;;;;;;;4.80;3.50;;;3.90;91.70;;;;;;5040413;28;20111;-43
2023/04/05 02:32:00;;;;;;;5.03;3.70;;;3.90;91.70;;;;;;5040320;28;20041;-41
2023/04/05 02:34:26;;;;;;;6.38;3.90;;;3.90;91.70;;;;;;5039308;28;20025;-43
2023/04/05 02:36:52;;;;;;;6.40;4.03;;;3.90;91.80;;;;;;5040294;28;20036;-44
2023/04/05 02:39:18;;;;;;;5.13;3.75;;;3.80;91.80;;;;;;5039181;28;20028;-43
2023/04/05 02:41:45;;;;;;;6.53;3.88;;;3.80;91.90;;;;;;5039984;28;20033;-43
2023/04/05 02:44:11;;;;;;;5.88;3.63;;;3.80;91.90;;;;;;5039473;28;20032;-42
2023/04/05 02:46:36;;;;;;;7.50;3.90;;;3.80;92.00;;;;;;5040170;28;20057;-43
2023/04/05 02:49:02;;;;;;;4.60;3.83;;;3.80;92.10;;;;;;5038931;28;20021;-42
2023/04/05 02:51:28;;;;;;;6.15;4.75;;;3.70;92.20;;;;;;5039965;28;20104;-43
2023/04/05 02:53:53;;;;;;;6.32;4.03;;;3.70;92.30;;;;;;5040554;28;20559;-43
2023/04/05 02:56:20;;;;;;;4.82;4.00;;;3.70;92.40;;;;;;5038363;28;20037;-43
2023/04/05 02:58:48;;;;;;;5.93;3.78;;;3.70;92.50;;;;;;5040174;28;20264;-42
2023/04/05 03:01:16;;;;;;;4.45;3.50;;;3.70;92.60;;;;;;5038846;28;20055;-42
2023/04/05 03:03:42;;;;;;;6.57;4.03;;;3.60;92.60;;;;;;5039504;28;20044;-42
2023/04/05 03:06:10;;;;;;;5.68;4.03;;;3.60;92.70;;;;;;5039093;28;20036;-44
2023/04/05 03:08:37;;;;;;;5.85;4.13;;;3.60;92.70;;;;;;5039539;28;20047;-44
2023/04/05 03:11:06;;;;;;;5.68;4.00;;;3.60;92.80;;;;;;5038622;28;20461;-43
2023/04/05 03:13:31;;;;;;;6.18;3.53;;;3.60;92.90;;;;;;5040491;28;20049;-43
2023/04/05 03:15:57;;;;;;;5.78;3.80;;;3.50;92.90;;;;;;5040221;28;20017;-43
2023/04/05 03:18:24;;;;;;;6.50;3.72;;;3.50;93.00;;;;;;5039735;28;20048;-42
2023/04/05 03:20:55;;;;;;;5.78;3.70;;;3.50;93.10;;;;;;5040840;28;20021;-44
2023/04/05 03:23:25;;;;;;;6.07;4.10;;;3.40;93.10;;;;;;5039409;28;20139;-43
2023/04/05 03:25:54;;;;;;;5.15;4.00;;;3.40;93.20;;;;;;5040603;28;20629;-42
2023/04/05 03:28:19;;;;;;;6.90;4.28;;;3.40;93.40;;;;;;5039399;28;20077;-42
2023/04/05 03:30:45;;;;;;;5.07;3.90;;;3.40;93.50;;;;;;5039094;28;20054;-43
2023/04/05 03:33:10;;;;;;;6.47;4.38;;;3.30;93.70;;;;;;5038735;28;20298;-43
2023/04/05 03:35:36;;;;;;;5.43;4.15;;;3.30;93.80;;;;;;5040353;28;20025;-42
2023/04/05 03:38:01;;;;;;;4.68;3.83;;;3.30;93.90;;;;;;5038394;28;20052;-43
2023/04/05 03:40:27;;;;;;;6.03;4.47;;;3.30;94.00;;;;;;5039039;28;20826;-43
2023/04/05 03:42:52;;;;;;;5.57;3.78;;;3.30;94.20;;;;;;5039602;28;20086;-42
2023/04/05 03:45:19;;;;;;;9.65;4.35;;;3.20;94.20;;;;;;5038079;28;20037;-42
2023/04/05 03:47:44;;;;;;;5.57;4.03;;;3.20;94.30;;;;;;5039263;28;20053;-42
2023/04/05 03:50:10;;;;;;;5.80;4.43;;;3.20;94.50;;;;;;5038783;28;20115;-42
2023/04/05 03:52:36;;;;;;;5.93;4.00;;;3.10;94.50;;;;;;5038771;28;20040;-42
2023/04/05 03:55:01;;;;;;;5.60;4.28;;;3.10;94.70;;;;;;5039772;28;20153;-42
2023/04/05 03:57:28;;;;;;;5.22;3.72;;;3.10;94.80;;;;;;5038943;28;20517;-43
2023/04/05 03:59:54;;;;;;;5.28;4.30;;;3.10;94.90;;;;;;5039582;28;20064;-43
2023/04/05 04:02:19;;;;;;;7.30;4.30;;;3.10;95.00;;;;;;5039472;28;20658;-43
2023/04/05 04:04:46;;;;;;;6.22;4.05;;;3.10;95.10;;;;;;5040051;28;20071;-42
2023/04/05 04:07:12;;;;;;;5.32;4.03;;;3.00;95.10;;;;;;5037854;28;20120;-41
2023/04/05 04:09:37;;;;;;;6.78;4.30;;;3.00;95.10;;;;;;5027812;28;20029;-43
2023/04/05 04:12:03;;;;;;;5.70;4.32;;;3.00;95.10;;;;;;5038851;28;20067;-42
2023/04/05 04:14:28;;;;;;;6.40;3.88;;;3.10;95.10;;;;;;5038452;28;20025;-43
2023/04/05 04:16:54;;;;;;;6.05;4.20;;;3.00;95.10;;;;;;5040059;28;20134;-43
2023/04/05 04:19:19;;;;;;;5.95;3.95;;;3.10;95.10;;;;;;5042066;28;20040;-43
2023/04/05 04:21:50;;;;;;;4.35;3.67;;;3.10;95.40;;;;;;5041864;28;20827;-43
2023/04/05 04:24:18;;;;;;;5.47;3.67;;;3.10;95.10;;;;;;5042108;28;20775;-43
2023/04/05 04:26:47;;;;;;;5.28;4.03;;;3.10;95.20;;;;;;5042918;28;20032;-43
2023/04/05 04:29:15;;;;;;;5.20;4.25;;;3.00;95.20;;;;;;5042193;28;20029;-43
2023/04/05 04:31:44;;;;;;;5.07;4.38;;;3.00;95.30;;;;;;5022571;28;20642;-43
2023/04/05 04:34:11;;;;;;;5.55;3.72;;;3.00;95.40;;;;;;5035615;28;20120;-44
2023/04/05 04:36:41;;;;;;;5.65;4.00;;;3.00;95.50;;;;;;5042117;28;20033;-43
2023/04/05 04:39:12;;;;;;;5.18;4.68;;;2.90;95.60;;;;;;5041478;28;20029;-42
2023/04/05 04:41:43;;;;;;;5.50;4.30;;;2.90;95.70;;;;;;5042816;28;20788;-43
2023/04/05 04:44:13;;;;;;;6.22;4.30;;;2.90;95.90;;;;;;5042032;28;20094;-44
2023/04/05 04:46:42;;;;;;;5.80;4.45;;;2.80;95.90;;;;;;5041851;28;20061;-42
2023/04/05 04:49:09;;;;;;;5.88;4.80;;;2.80;96.10;;;;;;5040608;28;20036;-42
2023/04/05 04:51:37;;;;;;;5.30;4.35;;;2.80;96.30;;;;;;5042051;28;20028;-43
2023/04/05 04:54:03;;;;;;;6.32;4.15;;;2.80;96.40;;;;;;5041548;28;20071;-43
2023/04/05 04:56:29;;;;;;;5.82;4.60;;;2.70;96.50;;;;;;5041298;28;20174;-42
2023/04/05 04:58:55;;;;;;;5.72;4.68;;;2.70;96.60;;;;;;5041812;28;20047;-44
2023/04/05 05:01:23;;;;;;;6.25;4.90;;;2.70;96.70;;;;;;5041235;28;20029;-44
2023/04/05 05:03:49;;;;;;;8.80;5.18;;;2.70;96.90;;;;;;5041404;28;20472;-43
2023/04/05 05:06:18;;;;;;;8.27;5.60;;;2.60;97.00;;;;;;5042211;28;20021;-42
2023/04/05 05:08:45;;;;;;;7.57;5.45;;;2.60;97.10;;;;;;5041802;28;20028;-43
2023/04/05 05:11:14;;;;;;;6.28;5.25;;;2.60;97.30;;;;;;5040476;28;20066;-44
2023/04/05 05:13:39;;;;;;;8.00;5.63;;;2.60;97.40;;;;;;5041941;28;20043;-44
2023/04/05 05:16:07;;;;;;;9.52;5.22;;;2.60;97.60;;;;;;5040281;28;20692;-42
2023/04/05 05:18:33;;;;;;;8.38;6.45;;;2.60;97.70;;;;;;5041708;28;20131;-42
2023/04/05 05:20:58;;;;;;;8.07;4.88;;;2.60;97.80;;;;;;5041351;28;20029;-42
2023/04/05 05:23:24;;;;;;;9.02;5.03;;;2.60;97.80;;;;;;5020469;28;20033;-44
2023/04/05 05:25:50;;;;;;;7.72;5.40;;;2.60;97.90;;;;;;5035873;28;20680;-43
2023/04/05 05:28:15;;;;;;;7.47;5.43;;;2.60;98.00;;;;;;5040836;28;20794;-44
2023/04/05 05:30:41;;;;;;;7.45;5.45;;;2.60;98.00;;;;;;5037909;28;20119;-42
2023/04/05 05:33:06;;;;;;;10.70;5.60;;;2.60;98.00;;;;;;5045189;28;20477;-42
2023/04/05 05:35:32;;;;;;;9.52;5.40;;;2.60;98.00;;;;;;5038548;28;20395;-42
2023/04/05 05:37:58;;;;;;;8.95;6.10;;;2.60;98.10;;;;;;5039410;28;20025;-43
2023/04/05 05:40:25;;;;;;;8.18;5.53;;;2.60;98.30;;;;;;5039942;28;20128;-43
2023/04/05 05:42:51;;;;;;;7.90;5.80;;;2.60;98.40;;;;;;5040531;28;20633;-42
2023/04/05 05:45:16;;;;;;;6.65;4.90;;;2.60;98.50;;;;;;5039277;28;20131;-43
2023/04/05 05:47:42;;;;;;;8.15;5.53;;;2.70;98.60;;;;;;5040649;28;20059;-42
2023/04/05 05:50:08;;;;;;;7.60;4.78;;;2.70;98.70;;;;;;5039654;28;20091;-43
2023/04/05 05:52:34;;;;;;;7.38;5.03;;;2.70;98.60;;;;;;5040240;28;20139;-42
2023/04/05 05:55:00;;;;;;;5.82;4.88;;;2.80;98.50;;;;;;5041083;28;20033;-43
2023/04/05 05:57:26;;;;;;;5.90;4.45;;;2.80;98.40;;;;;;5040052;28;20036;-43
2023/04/05 05:59:51;;;;;;;6.95;4.85;;;2.90;98.40;;;;;;5039473;28;20037;-43
2023/04/05 06:02:17;;;;;;;6.03;4.90;;;2.90;98.30;;;;;;5039776;28;20032;-43
2023/04/05 06:04:42;;;;;;;6.55;4.78;;;3.00;98.30;;;;;;5040167;28;20102;-42
2023/04/05 06:07:08;;;;;;;7.35;5.10;;;3.00;98.30;;;;;;5039270;28;20792;-43
2023/04/05 06:09:34;;;;;;;6.55;5.40;;;3.10;98.20;;;;;;5040242;28;20102;-43
2023/04/05 06:12:00;;;;;;;8.13;4.47;;;3.10;98.20;;;;;;5040014;28;20041;-42
2023/04/05 06:14:25;;;;;;;6.90;4.85;;;3.20;98.10;;;;;;5040243;28;20483;-43
2023/04/05 06:16:54;;;;;;;6.40;4.47;;;3.20;98.10;;;;;;5040770;28;20032;-43
2023/04/05 06:19:23;;;;;;;5.97;4.80;;;3.30;98.10;;;;;;5039524;28;20094;-43
2023/04/05 06:21:48;;;;;;;6.85;4.72;;;3.30;98.10;;;;;;5040643;28;20021;-43
2023/04/05 06:24:14;;;;;;;4.85;4.30;;;3.30;98.00;;;;;;5039880;28;20033;-43
2023/04/05 06:26:40;;;;;;;5.30;4.00;;;3.30;98.00;;;;;;5039872;28;20032;-42
2023/04/05 06:29:05;;;;;;;5.97;4.15;;;3.40;98.10;;;;;;5040577;28;20029;-42
2023/04/05 06:31:33;;;;;;;4.97;4.45;;;3.40;98.10;;;;;;5040141;28;20037;-42
2023/04/05 06:33:58;;;;;;;4.97;4.47;;;3.50;98.10;;;;;;5039509;28;20032;-43
2023/04/05 06:36:25;;;;;;;4.82;4.03;;;3.50;98.20;;;;;;5037773;28;20032;-43
2023/04/05 06:38:51;;;;;;;5.80;3.88;;;3.50;98.20;;;;;;5041622;28;20029;-42
2023/04/05 06:41:17;;;;;;;5.50;4.07;;;3.50;98.20;;;;;;5039230;28;20029;-42
2023/04/05 06:43:42;;;;;;;6.45;4.22;;;3.60;98.20;;;;;;5040531;28;20036;-42
2023/04/05 06:46:10;;;;;;;5.97;4.45;;;3.70;98.20;;;;;;5039592;28;20045;-42
2023/04/05 06:48:35;;;;;;;6.18;4.60;;;3.80;98.20;;;;;;5038033;28;20091;-43
2023/04/05 06:51:02;;;;;;;4.20;3.80;;;3.80;98.20;;;;;;5039525;28;20036;-43
2023/04/05 06:53:28;;;;;;;5.47;4.35;;;3.90;98.20;;;;;;5039287;28;20476;-41
2023/04/05 06:55:54;;;;;;;6.28;4.32;;;3.90;98.10;;;;;;5039194;28;20559;-43
2023/04/05 06:58:20;;;;;;;4.82;4.00;;;4.00;98.10;;;;;;5038628;28;20033;-42
2023/04/05 07:00:46;;;;;;;5.15;3.90;;;4.10;98.00;;;;;;5040085;28;20443;-42
2023/04/05 07:03:11;;;;;;;5.28;4.18;;;4.10;98.00;;;;;;5039309;28;20496;-43
2023/04/05 07:05:37;;;;;;;5.20;4.35;;;4.20;98.00;;;;;;5038717;28;20731;-43
2023/04/05 07:08:03;;;;;;;4.50;3.60;;;4.20;98.20;;;;;;5039592;28;20534;-44
2023/04/05 07:10:28;;;;;;;7.22;4.45;;;4.20;98.00;;;;;;5039192;28;20059;-42
2023/04/05 07:12:54;;;;;;;4.85;3.65;;;4.30;98.00;;;;;;5039548;28;20095;-43
2023/04/05 07:15:19;;;;;;;5.13;4.28;;;4.30;98.00;;;;;;5039858;28;20021;-42
2023/04/05 07:17:48;;;;;;;5.05;4.00;;;4.40;98.00;;;;;;5039773;28;20661;-42
2023/04/05 07:20:15;;;;;;;4.43;4.03;;;4.50;98.00;;;;;;5039349;28;20055;-42
2023/04/05 07:22:40;;;;;;;6.40;4.57;;;4.50;97.90;;;;;;5039319;28;20029;-42
2023/04/05 07:25:08;;;;;;;4.95;4.10;;;4.60;97.90;;;;;;5039273;28;20114;-43
2023/04/05 07:27:33;;;;;;;5.50;3.95;;;4.60;97.90;;;;;;5019984;28;20029;-43
2023/04/05 07:29:59;;;;;;;4.80;4.03;;;4.70;97.80;;;;;;5032270;28;20343;-42
2023/04/05 07:32:25;;;;;;;5.90;4.25;;;4.80;97.80;;;;;;5039626;28;20039;-43
2023/04/05 07:34:51;;;;;;;6.20;4.40;;;4.80;97.80;;;;;;5039289;28;20155;-43
2023/04/05 07:37:16;;;;;;;4.75;3.90;;;4.90;97.70;;;;;;5039133;28;20871;-42
2023/04/05 07:39:42;;;;;;;6.53;4.30;;;4.90;97.70;;;;;;5039429;28;20028;-43
2023/04/05 07:42:07;;;;;;;4.75;3.70;;;5.00;97.70;;;;;;5038725;28;20017;-42
2023/04/05 07:44:33;;;;;;;5.43;4.38;;;5.00;97.60;;;;;;5038716;28;20028;-41
2023/04/05 07:46:58;;;;;;;7.00;3.90;;;5.10;97.60;;;;;;5038550;28;20057;-42
2023/04/05 07:49:26;;;;;;;6.35;4.50;;;5.20;97.50;;;;;;5038906;28;20017;-43
2023/04/05 07:51:55;;;;;;;6.38;4.30;;;5.20;97.40;;;;;;5040330;28;20879;-43
2023/04/05 07:54:21;;;;;;;5.38;3.92;;;5.30;97.40;;;;;;5042965;28;20163;-42
2023/04/05 07:56:50;;;;;;;5.88;4.65;;;5.30;97.30;;;;;;5039511;28;20021;-43
2023/04/05 07:59:16;;;;;;;4.70;4.20;;;5.30;97.30;;;;;;5041555;28;20067;-42
2023/04/05 08:01:41;;;;;;;6.63;4.85;;;5.40;97.20;;;;;;5042509;28;20108;-42
2023/04/05 08:04:07;;;;;;;5.68;4.75;;;5.40;97.20;;;;;;5042543;28;20078;-43
2023/04/05 08:06:33;;;;;;;6.10;4.78;;;5.50;97.10;;;;;;5042320;28;20121;-42
2023/04/05 08:08:58;;;;;;;5.22;4.70;;;5.50;97.10;;;;;;5042733;28;20035;-43
2023/04/05 08:11:25;;;;;;;5.78;4.38;;;5.60;97.00;;;;;;5041590;28;20067;-43
2023/04/05 08:13:52;;;;;;;5.32;4.53;;;5.60;97.00;;;;;;5042278;28;20124;-43
2023/04/05 08:16:18;;;;;;;4.97;4.45;;;5.70;96.90;;;;;;5041071;28;20818;-43
2023/04/05 08:18:44;;;;;;;9.40;4.75;;;5.80;96.90;;;;;;5041255;28;20029;-44
2023/04/05 08:21:09;;;;;;;5.32;4.22;;;5.80;96.80;;;;;;5039951;28;20047;-43
2023/04/05 08:23:35;;;;;;;5.55;4.15;;;5.90;96.70;;;;;;5041544;28;20074;-42
2023/04/05 08:26:01;;;;;;;4.38;3.97;;;5.90;96.70;;;;;;5040119;28;20104;-42
2023/04/05 08:28:26;;;;;;;5.00;3.88;;;6.00;96.60;;;;;;5041095;28;20132;-43
2023/04/05 08:30:54;;;;;;;5.63;4.38;;;6.10;96.50;;;;;;5043073;28;20021;-43
2023/04/05 08:33:19;;;;;;;7.18;4.38;;;6.10;96.50;;;;;;5042232;28;20033;-43
2023/04/05 08:35:45;;;;;;;4.07;3.67;;;6.20;96.40;;;;;;5042569;28;20372;-43
2023/04/05 08:38:11;;;;;;;6.40;3.78;;;6.20;96.20;;;;;;5041761;28;20021;-43
2023/04/05 08:40:47;;;;;;;5.20;4.15;;;6.30;96.20;;;;;;5041835;28;20017;-42
2023/04/05 08:43:35;;;;;;;5.22;4.13;;;6.30;96.00;;;;;;5039705;28;20465;-43
2023/04/05 08:46:02;;;;;;;4.03;3.63;;;6.40;95.90;;;;;;5040116;28;20218;-43
2023/04/05 08:48:33;;;;;;;5.20;3.90;;;6.40;95.80;;;;;;5041696;28;20037;-43
2023/04/05 08:50:59;;;;;;;4.63;4.13;;;6.50;95.80;;;;;;5041801;28;20825;-43
2023/04/05 08:53:25;;;;;;;5.10;4.38;;;6.60;95.70;;;;;;5042442;28;20036;-43
2023/04/05 08:55:55;;;;;;;5.07;3.80;;;6.70;95.50;;;;;;5042220;28;20535;-43
2023/04/05 08:58:22;;;;;;;4.82;3.70;;;6.80;95.40;;;;;;5041308;28;20021;-43
2023/04/05 09:00:52;;;;;;;5.13;3.88;;;6.80;95.30;;;;;;5042444;28;20079;-43
2023/04/05 09:03:30;;;;;;;4.47;3.65;;;6.90;95.20;;;;;;5039930;28;20028;-43
2023/04/05 09:05:58;;;;;;;5.22;4.10;;;7.00;95.10;;;;;;5022608;28;20022;-43
2023/04/05 09:08:24;;;;;;;5.35;4.15;;;7.00;95.00;;;;;;5036671;28;20025;-43
2023/04/05 09:10:53;;;;;;;4.25;3.65;;;7.10;94.90;;;;;;5043092;28;20102;-43
2023/04/05 09:13:18;;;;;;;4.18;3.45;;;7.20;94.80;;;;;;5041158;28;20477;-43
2023/04/05 09:15:46;;;;;;;4.95;3.60;;;7.20;94.70;;;;;;5040857;28;20032;-43
2023/04/05 09:18:12;;;;;;;5.22;4.65;;;7.20;94.80;;;;;;5041361;28;20110;-43
2023/04/05 09:20:38;;;;;;;4.20;3.38;;;7.30;94.50;;;;;;5042260;28;20528;-44
2023/04/05 09:23:03;;;;;;;5.07;3.78;;;7.30;94.40;;;;;;5040482;28;20029;-43
2023/04/05 09:25:33;;;;;;;5.28;4.30;;;7.40;94.30;;;;;;5042185;28;20090;-44
2023/04/05 09:27:59;;;;;;;7.68;3.95;;;7.40;93.90;;;;;;5040842;28;20103;-43
2023/04/05 09:30:29;;;;;;;3.95;3.03;;;7.40;93.80;;;;;;5040998;28;20025;-43
2023/04/05 09:32:55;;;;;;;4.32;3.42;;;7.40;93.80;;;;;;5041669;28;20041;-44
2023/04/05 09:35:27;;;;;;;5.43;3.53;;;7.50;93.70;;;;;;5040346;28;20029;-43
2023/04/05 09:37:57;;;;;;;3.53;3.17;;;7.50;93.50;;;;;;5041589;28;20032;-43
2023/04/05 09:40:23;;;;;;;4.43;3.50;;;7.60;93.40;;;;;;5040760;28;20028;-43
2023/04/05 09:42:49;;;;;;;5.03;3.30;;;7.60;93.30;;;;;;5041740;28;20025;-43
2023/04/05 09:45:17;;;;;;;3.95;3.25;;;7.70;93.30;;;;;;5039177;28;20024;-44
2023/04/05 09:47:56;;;;;;;5.40;4.10;;;7.70;93.20;;;;;;5040840;28;20068;-43
2023/04/05 09:50:24;;;;;;;4.22;3.17;;;7.70;93.10;;;;;;5039778;28;20799;-44
2023/04/05 09:52:51;;;;;;;3.63;2.75;;;7.80;93.00;;;;;;5040797;28;20064;-44
2023/04/05 09:55:27;;;;;;;3.22;2.85;;;7.80;92.90;;;;;;5040411;28;20024;-44
2023/04/05 09:57:53;;;;;;;4.50;3.42;;;7.80;92.80;;;;;;5040463;28;20040;-43
2023/04/05 10:00:21;;;;;;;3.40;3.10;;;7.80;92.60;;;;;;5039949;28;20021;-43
2023/04/05 10:02:53;;;;;;;3.40;2.80;;;7.80;92.50;;;;;;5041331;28;20090;-43
2023/04/05 10:05:25;;;;;;;;;;;7.80;92.40;;;;;;5039551;28;20040;-43
2023/04/05 10:07:51;;;;;;;4.30;3.53;;;7.80;92.40;;;;;;5041054;28;20269;-44
2023/04/05 10:10:17;;;;;;;4.18;3.20;;;7.80;92.30;;;;;;5039819;28;20083;-44
2023/04/05 10:12:45;;;;;;;3.30;2.92;;;8.00;92.20;;;;;;5039963;28;20124;-44
2023/04/05 10:15:13;;;;;;;5.00;3.13;;;8.00;92.10;;;;;;5039078;28;20021;-44
2023/04/05 10:17:59;;;;;;;4.22;3.00;;;8.00;91.90;;;;;;5040390;28;20093;-43
2023/04/05 10:20:31;;;;;;;4.35;3.60;;;8.10;91.80;;;;;;5040311;28;20033;-44
2023/04/05 10:23:03;;;;;;;3.85;3.38;;;8.20;91.60;;;;;;5040634;28;20037;-42
2023/04/05 10:25:50;;;;;;;4.47;3.15;;;8.20;91.50;;;;;;5040025;28;20477;-44
2023/04/05 10:28:32;;;;;;;4.85;3.00;;;8.30;91.50;;;;;;5040425;28;20120;-44
2023/04/05 10:31:23;;;;;;;4.25;3.28;;;8.40;91.40;;;;;;5040451;28;20039;-44
2023/04/05 10:34:02;;;;;;;3.70;3.15;;;8.40;91.10;;;;;;5020293;28;20065;-35
2023/04/05 10:36:42;;;;;;;2.90;2.60;;;8.40;91.00;;;;;;5036848;28;20123;-34
2023/04/05 10:39:27;;;;;;;3.60;2.53;;;8.50;90.90;;;;;;5024525;28;20536;-39
2023/04/05 10:41:58;;;;;;;3.20;2.67;;;8.50;90.80;;;;;;5039732;28;20139;-34
2023/04/05 10:44:24;;;;;;;3.50;2.92;;;8.50;90.70;;;;;;5040902;28;20033;-34
2023/04/05 10:46:52;;;;;;;3.90;3.33;;;8.50;90.60;;;;;;5039460;28;20068;-33
2023/04/05 10:49:40;;;;;;;3.85;3.30;;;8.60;90.50;;;;;;5019723;28;20025;-34
2023/04/05 10:52:06;;;;;;;3.33;2.95;;;8.70;90.40;;;;;;5036945;28;20112;-35
2023/04/05 10:54:35;;;;;;;4.00;3.05;;;8.70;90.10;;;;;;5040008;28;20028;-32
2023/04/05 10:57:06;;;;;;;3.20;2.70;;;8.80;90.00;;;;;;5039491;28;20120;-33
2023/04/05 10:59:33;;;;;;;3.83;3.42;;;8.90;90.10;;;;;;5040047;28;20041;-34
2023/04/05 11:01:59;;;;;;;4.13;3.40;;;8.90;89.20;;;;;;5038277;28;20028;-34
2023/04/05 11:04:25;;;;;;;4.07;3.25;;;9.00;89.00;;;;;;5039330;28;20033;-34
2023/04/05 11:07:10;;;;;;;4.93;3.13;;;9.10;88.70;;;;;;5040890;28;20048;-33
2023/04/05 11:09:37;;;;;;;3.35;3.03;;;9.10;88.40;;;;;;5039930;28;20090;-35
2023/04/05 11:12:02;;;;;;;3.08;2.60;;;9.10;88.40;;;;;;5039391;28;20589;-34
2023/04/05 11:14:35;;;;;;;5.80;2.95;;;9.10;88.30;;;;;;5040454;28;20112;-34
2023/04/05 11:17:02;;;;;;;3.42;3.10;;;9.20;88.10;;;;;;5038896;28;20377;-31
2023/04/05 11:19:51;;;;;;;4.97;3.58;;;9.10;87.80;;;;;;5040210;28;20021;-34
2023/04/05 11:22:29;;;;;;;3.75;3.33;;;9.10;87.10;;;;;;5039224;28;20033;-34
2023/04/05 11:24:57;;;;;;;4.70;3.15;;;9.10;86.80;;;;;;5039853;28;20574;-35
2023/04/05 11:27:36;;;;;;;4.78;3.75;;;9.10;86.90;;;;;;5042629;28;20021;-34
2023/04/05 11:30:04;;;;;;;4.65;3.15;;;9.20;86.20;;;;;;5042967;28;20274;-34
2023/04/05 11:32:41;;;;;;;4.32;2.80;;;9.30;86.20;;;;;;5044062;28;20480;-34
2023/04/05 11:35:16;;;;;;;3.80;2.78;;;9.30;86.00;;;;;;5043371;28;20119;-34
2023/04/05 11:38:01;;;;;;;3.50;2.83;;;9.30;85.90;;;;;;5043396;28;20029;-33
2023/04/05 11:40:31;;;;;;;6.25;3.20;;;9.30;85.80;;;;;;5044207;28;20033;-34
2023/04/05 11:43:00;;;;;;;5.15;2.70;;;9.40;85.30;;;;;;5043354;28;20012;-34
2023/04/05 11:45:26;;;;;;;4.35;3.17;;;9.30;85.30;;;;;;5043753;28;20031;-33
2023/04/05 11:47:51;;;;;;;3.33;2.97;;;9.40;85.30;;;;;;5043120;28;20125;-33
2023/04/05 11:50:17;;;;;;;4.78;3.20;;;9.40;85.20;;;;;;5042691;28;20473;-32
2023/04/05 11:52:43;;;;;;;3.53;3.08;;;9.50;84.90;;;;;;5043378;28;20040;-33
2023/04/05 11:55:10;;;;;;;3.22;2.92;;;9.50;84.70;;;;;;5042607;28;20021;-34
2023/04/05 11:57:36;;;;;;;3.35;3.05;;;9.60;84.30;;;;;;5042827;28;20460;-33
2023/04/05 12:00:03;;;;;;;3.30;3.00;;;9.60;84.20;;;;;;5042934;28;20457;-33
2023/04/05 12:02:33;;;;;;;4.20;3.60;;;9.50;84.10;;;;;;5043626;28;20029;-33
2023/04/05 12:04:59;;;;;;;4.40;3.25;;;9.50;84.20;;;;;;5041642;28;20017;-34
2023/04/05 12:07:35;;;;;;;3.58;2.95;;;9.50;83.60;;;;;;5042786;28;20056;-34
2023/04/05 12:10:07;;;;;;;3.33;3.00;;;9.50;83.70;;;;;;5042480;28;20643;-34
2023/04/05 12:12:42;;;;;;;3.80;2.87;;;9.60;83.60;;;;;;5042946;28;20567;-34
2023/04/05 12:15:10;;;;;;;3.45;3.00;;;9.60;83.60;;;;;;5042182;28;20123;-33
2023/04/05 12:17:49;;;;;;;5.70;3.10;;;9.70;83.60;;;;;;5043067;28;20025;-34
2023/04/05 12:20:23;;;;;;;4.93;3.40;;;9.80;83.40;;;;;;5042238;28;20032;-33
2023/04/05 12:23:03;;;;;;;3.15;2.85;;;9.90;83.00;;;;;;5043225;28;20806;-33
2023/04/05 12:25:30;;;;;;;4.03;3.40;;;9.90;82.90;;;;;;5041929;28;20131;-33
2023/04/05 12:27:55;;;;;;;5.63;3.47;;;10.00;82.30;;;;;;5042450;28;20112;-34
2023/04/05 12:30:22;;;;;;;4.32;3.60;;;10.00;82.20;;;;;;5041666;28;20037;-34
2023/04/05 12:32:52;;;;;;;5.03;4.00;;;10.10;82.40;;;;;;5041626;28;20040;-34
2023/04/05 12:35:31;;;;;;;4.05;3.65;;;10.20;82.10;;;;;;5041963;28;20040;-35
2023/04/05 12:37:58;;;;;;;4.65;4.07;;;10.20;81.80;;;;;;5021618;28;20037;-36
2023/04/05 12:40:24;;;;;;;4.57;3.80;;;10.20;81.40;;;;;;5035806;28;20033;-34
2023/04/05 12:42:50;;;;;;;4.20;3.78;;;10.20;81.20;;;;;;5042678;28;20033;-34
2023/04/05 12:45:17;;;;;;;4.40;3.63;;;10.20;81.10;;;;;;5041655;28;20024;-34
2023/04/05 12:47:56;;;;;;;4.70;3.78;;;10.20;81.10;;;;;;5041915;28;20466;-34
2023/04/05 12:50:30;;;;;;;4.13;3.70;;;10.30;81.10;;;;;;5041948;28;20032;-35
2023/04/05 12:53:00;;;;;;;3.72;3.28;;;10.30;81.20;;;;;;5042858;28;20062;-34
2023/04/05 12:55:29;;;;;;;4.32;3.78;;;10.30;81.10;;;;;;5041216;28;20025;-33
2023/04/05 12:57:59;;;;;;;3.90;2.95;;;10.30;80.60;;;;;;5042581;28;20787;-33
2023/04/05 13:00:29;;;;;;;3.95;3.45;;;10.30;80.60;;;;;;5041274;28;20492;-33
2023/04/05 13:02:56;;;;;;;4.18;3.63;;;10.30;80.40;;;;;;5042801;28;20397;-34